Terminal Aerodrome Forecast
Issued by NWS Quad Cities IA IL

Home | Current Version | Previous Version | Text Only | Print | Product List | Glossary On
Versions: 1 2 3 4 5 6 7 8 9 10 11 12 13 14 15
000
FTUS43 KDVN 242128 AAB
TAFDBQ
TAF AMD
KDBQ 242128Z 2421/2518 06007KT 3SM SHRA BKN030 OVC060
     FM250000 13012KT 4SM SHRA BR BKN012 OVC030
     FM250700 16007KT 2SM -SHRA BR SCT007 BKN009 OVC012
     FM251400 24015G25KT 5SM BR VCSH BKN020=

USA.gov is the U.S. government's official web portal to all federal, state and local government web resources and services.